Station: Act Pcs2  

  Atmospheric Gas Attenuation - ITU Rec 676-11   ----------------- dB/100km -----------------
Date Time Temp RH % AH g/m3 Dew Point Wind Direction Speed kph Gust kph Barometer mB Rainfall Since 9am 24GHz 47GHz 76GHz 122GHz 134GHz 241GHz
02/09 19:30 14.5 68 8.46 8.8 4 6 1013.1 0 19.3 25.5 38.9 102.0 95.7 329.1
02/09 19:20 14.6 67 8.38 8.7 6 7 1013.1 0 19.1 25.3 38.5 101.1 94.5 325.0
02/09 19:10 14.7 67 8.44 8.7 6 7 1013.1 0 19.2 25.4 38.7 101.6 95.2 327.3
02/09 19:00 14.9 66 8.41 8.7 6 9 1013.1 0 19.1 25.3 38.5 101.0 94.5 325.1
02/09 18:50 14.8 66 8.36 8.5 6 11 1013.1 0 19.0 25.2 38.3 100.6 94.0 323.3
02/09 18:40 14.9 65 8.28 8.5 4 6 1013.1 0 18.9 25.1 38.0 99.6 92.9 319.3
02/09 18:30 15 64 8.21 8.3 6 9 1013.1 0 18.7 24.9 37.7 98.8 91.9 315.7
02/09 18:20 15 63 8.08 8.1 6 7 1013.1 0 18.4 24.7 37.2 97.4 90.2 309.9
02/09 18:10 15.1 62 8 8 6 7 1013.1 0 18.2 24.6 36.8 96.5 89.1 306.0
02/09 18:00 15.2 61 7.92 7.8 7 13 1013.1 0 18.1 24.4 36.5 95.5 87.9 302.0
02/09 17:50 15.3 60 7.84 7.6 7 15 1013.1 0 17.9 24.3 36.1 94.6 86.8 298.1
02/09 17:40 15.4 59 7.75 7.5 9 13 1013.1 0 17.7 24.1 35.7 93.6 85.6 293.8
02/09 17:30 15.5 59 7.8 7.5 7 17 1013.1 0 17.8 24.2 35.9 94.0 86.1 295.6
02/09 17:20 15.6 58 7.71 7.5 9 15 1013.1 0 17.6 24.0 35.5 92.9 84.9 291.3
02/09 17:10 15.8 58 7.81 7.5 7 11 1013.1 0 17.8 24.1 35.8 93.7 85.9 294.9
02/09 17:00 16 57 7.77 7.5 6 9 1013.1 0 17.7 24.0 35.5 93.1 85.2 292.5
02/09 16:50 16.2 56 7.72 7.4 7 13 1013.1 0 17.6 23.8 35.2 92.3 84.3 289.5
02/09 16:40 16.8 54 7.72 7.6 6 9 1013.1 0 17.6 23.7 35.0 91.6 83.7 287.4
02/09 16:30 17 53 7.67 7.3 7 11 1013.1 0 17.5 23.6 34.7 90.9 82.9 284.5
02/09 16:20 17.1 51 7.42 7.1 7 11 1013.1 0 16.9 23.2 33.8 88.4 79.7 273.5
02/09 16:10 17.3 51 7.51 7.2 7 13 1013.1 0 17.1 23.2 34.0 89.0 80.6 276.7
02/09 15:50 18.4 49 7.71 7.6 9 15 1013.1 0 17.5 23.3 34.3 89.7 81.9 281.3
02/09 15:40 18.4 47 7.39 6.9 9 15 1013.1 0 16.8 22.8 33.1 86.7 78.1 267.9
02/09 15:30 18.5 45 7.12 6.5 9 15 1013.1 0 16.2 22.4 32.1 84.0 74.8 256.4
02/09 15:20 18.5 46 7.28 6.9 9 15 1013.1 0 16.6 22.6 32.7 85.5 76.7 263.0
02/09 15:10 18.4 46 7.23 6.8 9 15 1013.1 0 16.5 22.6 32.5 85.1 76.2 261.3
02/09 15:00 17.9 48 7.33 6.7 13 19 1013.1 0 16.7 22.8 33.1 86.6 77.9 267.1
02/09 14:50 18.1 46 7.11 6.5 9 13 1013.1 0 16.2 22.5 32.2 84.3 75.1 257.3
02/09 14:40 17.6 47 7.05 6.2 11 19 1013.1 0 16.1 22.5 32.2 84.2 74.8 256.4
02/09 14:30 17.9 46 7.02 6.3 11 15 1013.1 0 16.1 22.4 32.0 83.6 74.2 254.2
02/09 14:20 18 46 7.06 6.2 9 17 1013.1 0 16.1 22.4 32.1 83.9 74.6 255.5
02/09 14:10 18.5 45 7.12 6.4 11 19 1013.1 0 16.2 22.4 32.1 84.0 74.8 256.4
02/09 13:50 18.4 45 7.08 6.5 11 20 1013.1 0 16.2 22.3 32.0 83.7 74.4 255.1
02/09 13:40 19.3 44 7.3 6.7 9 17 1013.1 0 16.6 22.4 32.4 84.8 76.2 261.3
02/09 13:30 20.7 38 6.84 6.1 7 13 1013.1 0 15.6 21.5 30.3 79.2 69.6 238.4
02/09 13:20 20.1 43 7.47 7.1 11 13 1013.1 0 16.9 22.5 32.7 85.6 77.4 265.6
02/09 13:10 21.2 39 7.23 6.9 7 11 1013.1 0 16.4 21.9 31.4 82.2 73.6 252.4
02/09 12:50 20 41 7.08 6.4 9 15 1013.1 0 16.1 22.0 31.4 82.1 73.0 250.1
02/09 12:40 19.1 43 7.05 6.5 9 11 1013.1 0 16.1 22.1 31.6 82.7 73.4 251.7
02/09 12:30 18.7 44 7.04 6.3 13 22 1013.1 0 16.1 22.2 31.7 83.0 73.7 252.5
02/09 12:20 18.7 47 7.52 7.2 11 15 1013.1 0 17.1 22.9 33.5 87.6 79.3 272.3
02/09 12:10 19.2 48 7.91 7.9 7 11 1013.1 0 17.9 23.4 34.7 90.8 83.5 286.9
02/09 12:00 19.8 46 7.86 8.1 7 11 1013.1 0 17.7 23.1 34.2 89.6 82.3 282.7
02/09 11:50 19.5 47 7.89 8 7 11 1013.1 0 17.8 23.2 34.5 90.3 82.9 285.0
02/09 11:40 19.6 47 7.93 8 7 9 1013.1 0 17.9 23.3 34.6 90.5 83.3 286.3
02/09 11:30 19 52 8.47 8.9 6 7 1013.1 0 19.1 24.2 36.8 96.5 90.5 311.4
02/09 11:20 18.5 50 7.91 7.9 6 9 1013.1 0 17.9 23.5 35.0 91.6 84.2 289.4
02/09 11:10 18.2 50 7.77 7.7 9 13 1013.1 0 17.6 23.4 34.6 90.6 82.8 284.5
02/09 11:00 18.7 49 7.84 8 7 9 1013.1 0 17.8 23.4 34.6 90.7 83.2 285.7
02/09 10:50 18.6 51 8.12 8.4 6 7 1013.1 0 18.3 23.8 35.7 93.5 86.6 297.9
02/09 10:40 18.2 51 7.93 7.9 6 9 1013.1 0 18.0 23.6 35.2 92.1 84.8 291.3
02/09 10:30 17.4 54 8 8 9 13 1013.1 0 18.1 24.0 35.8 93.7 86.5 297.3
02/09 10:20 17.4 51 7.56 7.2 7 11 1013.1 0 17.2 23.3 34.1 89.4 81.1 278.4
02/09 10:10 17.1 55 8.01 8 6 7 1013.1 0 18.2 24.0 35.9 94.2 86.9 298.8
02/09 10:00 16.9 55 7.91 7.8 6 7 1013.1 0 18.0 23.9 35.7 93.4 85.9 295.2
02/09 09:50 16.9 60 8.63 9.2 6 7 1013.1 0 19.5 25.1 38.4 100.7 94.9 326.8
02/09 09:40 16.8 59 8.43 8.9 6 7 1013.1 0 19.1 24.8 37.7 98.8 92.5 318.3
02/09 09:30 16.4 62 8.65 9.1 6 6 1013.1 0 19.6 25.2 38.7 101.6 95.8 329.7
02/09 09:20 16.5 60 8.42 8.9 4 6 1013.1 0 19.1 24.8 37.8 99.1 92.8 319.1
02/09 09:10 15.9 64 8.67 9.1 4 7 1013.1 0 19.6 25.4 39.0 102.4 96.7 332.7
02/09 09:00 15.4 63 8.28 8.5 6 7 1013.1 0 18.8 24.9 37.7 99.0 92.3 317.3
02/09 08:50 14.9 67 8.54 8.8 4 6 1013.1 0 19.4 25.5 39.0 102.4 96.2 331.0
02/09 08:40 13.7 71 8.41 8.5 4 6 1013.1 0 19.2 25.6 39.1 102.5 96.0 330.1
02/09 08:30 12.8 77 8.63 8.9 4 6 1013.1 0 19.7 26.2 40.4 106.1 100.1 344.2
02/09 08:20 12.7 78 8.68 9 4 6 1013.1 0 19.8 26.3 40.7 106.8 100.9 347.0
02/09 08:10 12.9 78 8.79 9.1 4 6 1013.1 0 20.0 26.5 41.0 107.7 102.1 351.3
02/09 08:00 12.8 77 8.63 8.9 4 6 1013.1 0 19.7 26.2 40.4 106.1 100.1 344.2
02/09 07:50 12.3 78 8.47 8.6 4 7 1013.1 0 19.4 26.1 40.0 105.0 98.6 338.9
02/09 07:40 11.9 79 8.37 8.4 4 6 1013.1 0 19.2 26.1 39.8 104.5 97.7 335.9
02/09 07:30 11.4 82 8.42 8.4 4 6 1013.1 0 19.3 26.3 40.3 105.7 99.0 340.4
02/09 07:20 11.1 82 8.26 8.2 4 4 1013.1 0 19.0 26.1 39.8 104.3 97.3 334.1
02/09 07:10 10.4 86 8.29 8.1 6 7 1013.1 0 19.1 26.4 40.2 105.6 98.6 338.6
02/09 07:00 10.1 87 8.23 8 6 7 1013.1 0 19.0 26.4 40.1 105.3 98.1 337.0
02/09 06:50 9.9 88 8.22 8 4 4 1013.1 0 19.0 26.4 40.2 105.5 98.2 337.4
02/09 06:40 9.7 88 8.11 7.9 4 6 1013.1 0 18.7 26.3 39.9 104.6 97.0 333.0
02/09 06:30 9.6 89 8.16 7.9 4 6 1013.1 0 18.8 26.4 40.1 105.2 97.8 335.8
02/09 06:20 9.8 87 8.07 7.8 4 6 1013.1 0 18.6 26.2 39.6 104.0 96.3 330.6
02/09 06:10 9.6 88 8.06 7.7 6 7 1013.1 0 18.6 26.2 39.7 104.1 96.4 331.0
02/09 06:00 9.6 89 8.16 7.9 6 7 1013.1 0 18.8 26.4 40.1 105.2 97.8 335.8
02/09 05:50 9.6 89 8.16 7.9 4 6 1013.1 0 18.8 26.4 40.1 105.2 97.8 335.8
02/09 05:40 9.6 90 8.25 8 6 6 1013.1 0 19.0 26.6 40.5 106.3 99.0 340.1
02/09 05:30 9.7 88 8.11 7.9 4 6 1013.1 0 18.7 26.3 39.9 104.6 97.0 333.0
02/09 05:20 10 87 8.18 7.9 9 11 1013.1 0 18.9 26.3 40.0 104.9 97.6 335.0
02/09 05:10 10.1 86 8.13 7.9 9 11 1013.1 0 18.8 26.2 39.7 104.2 96.7 332.2
02/09 05:00 10.2 85 8.09 7.8 9 13 1013.1 0 18.7 26.1 39.5 103.7 96.1 329.9
02/09 04:50 10.3 83 7.95 7.6 9 11 1013.1 0 18.4 25.8 38.9 102.0 94.1 322.8
02/09 04:40 10.3 82 7.85 7.4 7 9 1013.1 0 18.1 25.7 38.5 100.9 92.7 318.1
02/09 04:30 10.5 82 7.95 7.6 6 7 1013.1 0 18.4 25.8 38.8 101.7 93.8 322.0
02/09 04:20 11 77 7.71 7.1 4 6 1013.1 0 17.8 25.2 37.6 98.5 90.0 308.7
02/09 04:10 11.3 73 7.45 6.7 4 6 1013.1 0 17.2 24.7 36.4 95.3 86.2 295.6
02/09 04:00 11.2 74 7.5 6.7 6 6 1013.1 0 17.4 24.9 36.6 96.0 87.0 298.2
02/09 03:50 11.2 75 7.6 6.9 4 6 1013.1 0 17.6 25.0 37.0 97.1 88.3 302.8
02/09 03:40 11.4 73 7.49 6.7 6 7 1013.1 0 17.3 24.8 36.5 95.6 86.6 297.0
02/09 03:30 11.5 71 7.33 6.5 6 7 1013.1 0 17.0 24.5 35.8 93.8 84.5 289.3
02/09 03:20 11.4 73 7.49 6.8 6 6 1013.1 0 17.3 24.8 36.5 95.6 86.6 297.0
02/09 03:10 11.6 72 7.48 6.8 6 7 1013.1 0 17.3 24.7 36.4 95.3 86.3 295.8
02/09 03:00 11.8 74 7.79 7.3 6 7 1013.1 0 17.9 25.2 37.5 98.3 90.1 309.3
02/09 02:50 12 69 7.35 6.5 6 9 1013.1 0 17.0 24.4 35.7 93.4 84.2 288.4
02/09 02:40 12.1 67 7.19 6.3 4 7 1013.1 0 16.7 24.1 35.0 91.7 82.0 280.8
02/09 02:30 12.1 67 7.19 6.3 7 11 1013.1 0 16.7 24.1 35.0 91.7 82.0 280.8

Last Refresh: 02-Sep-2026 19:14:37

Bureau of Meteorology